Time;durP1;ratioP1;P1;durP2;ratioP2;P2;SDS_P1;SDS_P2;PMS_P1;PMS_P2;Temp;Humidity;BMP_temperature;BMP_pressure;BME280_temperature;BME280_humidity;BME280_pressure;Samples;Min_cycle;Max_cycle;Signal;HPM_P1;HPM_P2
2021/09/10 00:01:25;;;;;;;4.45;4.05;;;18.10;99.90;;;;;;5086131;28;20211;-80
2021/09/10 00:03:52;;;;;;;3.60;3.30;;;18.10;99.90;;;;;;5084038;28;20628;-79
2021/09/10 00:06:20;;;;;;;4.10;3.70;;;18.10;99.90;;;;;;5084364;28;20204;-79
2021/09/10 00:08:47;;;;;;;4.03;3.63;;;18.10;99.90;;;;;;5084257;28;20196;-80
2021/09/10 00:11:14;;;;;;;4.15;3.50;;;18.00;99.90;;;;;;5084242;28;20201;-79
2021/09/10 00:13:40;;;;;;;3.85;3.45;;;18.00;99.90;;;;;;5084085;28;20235;-78
2021/09/10 00:16:07;;;;;;;4.20;3.80;;;18.00;99.90;;;;;;5084482;28;20203;-78
2021/09/10 00:18:34;;;;;;;3.90;3.40;;;18.00;99.90;;;;;;5084212;28;20200;-80
2021/09/10 00:21:01;;;;;;;4.43;3.95;;;18.00;99.90;;;;;;5084296;28;20209;-78
2021/09/10 00:23:29;;;;;;;3.80;3.30;;;18.00;99.90;;;;;;5085558;28;20204;-78
2021/09/10 00:25:56;;;;;;;4.43;3.90;;;18.00;99.90;;;;;;5084622;28;20208;-81
2021/09/10 00:28:23;;;;;;;3.90;3.60;;;18.00;99.90;;;;;;5085370;28;20846;-78
2021/09/10 00:30:50;;;;;;;4.03;3.63;;;18.00;99.90;;;;;;5084826;28;20192;-78
2021/09/10 00:33:17;;;;;;;4.20;3.67;;;18.00;99.90;;;;;;5099335;28;20224;-79
2021/09/10 00:35:44;;;;;;;4.85;4.35;;;18.00;99.90;;;;;;5105607;28;20196;-78
2021/09/10 00:38:11;;;;;;;4.00;3.60;;;18.00;99.90;;;;;;5105272;28;20203;-79
2021/09/10 00:40:39;;;;;;;4.60;3.97;;;18.00;99.90;;;;;;5092172;28;20204;-79
2021/09/10 00:43:05;;;;;;;4.90;3.97;;;18.10;99.90;;;;;;5084949;28;20205;-79
2021/09/10 00:45:32;;;;;;;4.10;3.72;;;18.10;99.90;;;;;;5084885;28;21028;-80
2021/09/10 00:47:59;;;;;;;6.40;3.78;;;18.10;99.90;;;;;;5097269;28;20580;-80
2021/09/10 00:50:26;;;;;;;4.03;3.47;;;18.10;99.90;;;;;;5105595;28;20208;-79
2021/09/10 00:52:53;;;;;;;6.15;3.45;;;18.10;99.90;;;;;;5098749;28;20813;-77
2021/09/10 00:55:25;;;;;;;3.85;3.45;;;18.10;99.90;;;;;;5099827;28;20240;-79
2021/09/10 00:57:54;;;;;;;3.20;2.90;;;18.10;99.90;;;;;;5085724;28;20744;-79
2021/09/10 01:00:22;;;;;;;3.13;2.88;;;18.10;99.90;;;;;;5085799;28;20620;-79
2021/09/10 01:02:49;;;;;;;4.38;3.35;;;18.00;99.90;;;;;;5086746;28;20212;-79
2021/09/10 01:05:16;;;;;;;3.15;2.85;;;18.00;99.90;;;;;;5087165;28;20957;-79
2021/09/10 01:07:44;;;;;;;3.72;2.72;;;18.00;99.90;;;;;;5086418;28;20572;-79
2021/09/10 01:10:12;;;;;;;3.38;3.08;;;18.00;99.90;;;;;;5087930;28;20204;-79
2021/09/10 01:12:40;;;;;;;3.20;2.92;;;18.00;99.90;;;;;;5086371;28;20219;-78
2021/09/10 01:15:09;;;;;;;3.85;3.50;;;18.00;99.90;;;;;;5084171;28;20258;-79
2021/09/10 01:17:36;;;;;;;3.28;2.97;;;18.00;99.90;;;;;;5084180;28;20253;-80
2021/09/10 01:20:05;;;;;;;3.53;3.20;;;18.00;99.90;;;;;;5084074;28;20227;-79
2021/09/10 01:22:32;;;;;;;3.10;2.80;;;18.10;99.90;;;;;;5083335;28;20212;-79
2021/09/10 01:25:12;;;;;;;5.20;3.08;;;18.10;99.90;;;;;;5083280;28;20197;-80
2021/09/10 01:27:41;;;;;;;4.05;3.13;;;18.10;99.90;;;;;;5083113;28;20208;-79
2021/09/10 01:30:09;;;;;;;3.53;3.00;;;18.10;99.90;;;;;;5084018;28;20203;-79
2021/09/10 01:32:36;;;;;;;4.63;3.30;;;18.10;99.90;;;;;;5084269;28;20212;-79
2021/09/10 01:35:03;;;;;;;3.38;3.08;;;18.10;99.90;;;;;;5082740;28;20662;-79
2021/09/10 01:37:30;;;;;;;6.43;3.40;;;18.10;99.90;;;;;;5084137;28;20196;-83
2021/09/10 01:39:57;;;;;;;3.28;2.97;;;18.10;99.90;;;;;;5083244;28;20612;-79
2021/09/10 01:42:25;;;;;;;3.42;3.13;;;18.10;99.90;;;;;;5083293;28;20779;-79
2021/09/10 01:44:52;;;;;;;3.85;3.40;;;18.10;99.90;;;;;;5083820;28;20197;-79
2021/09/10 01:47:19;;;;;;;4.20;3.35;;;18.00;99.90;;;;;;5084038;28;20854;-79
2021/09/10 01:49:46;;;;;;;4.03;3.60;;;18.00;99.90;;;;;;5083177;28;20219;-78
2021/09/10 01:52:13;;;;;;;4.65;3.50;;;18.00;99.90;;;;;;5087323;28;20212;-78
2021/09/10 01:54:40;;;;;;;3.80;3.40;;;18.00;99.90;;;;;;5087559;28;20229;-81
2021/09/10 01:57:07;;;;;;;4.43;4.03;;;18.00;99.90;;;;;;5083506;28;20208;-80
2021/09/10 01:59:35;;;;;;;7.07;5.10;;;18.00;99.90;;;;;;5084807;28;20227;-79
2021/09/10 02:02:02;;;;;;;6.20;5.00;;;18.00;99.90;;;;;;5083169;28;20216;-79
2021/09/10 02:04:29;;;;;;;7.25;5.03;;;18.00;99.90;;;;;;5082636;28;20630;-79
2021/09/10 02:06:56;;;;;;;6.25;5.18;;;18.00;99.90;;;;;;5082498;28;20219;-79
2021/09/10 02:09:22;;;;;;;5.85;5.25;;;18.00;99.90;;;;;;5083206;28;20204;-79
2021/09/10 02:11:49;;;;;;;6.07;5.30;;;18.00;99.90;;;;;;5081762;28;20205;-79
2021/09/10 02:14:16;;;;;;;6.80;5.63;;;18.00;99.90;;;;;;5083166;28;20224;-80
2021/09/10 02:16:44;;;;;;;6.07;5.25;;;17.90;99.90;;;;;;5082228;28;20200;-78
2021/09/10 02:19:11;;;;;;;5.05;4.55;;;17.90;99.90;;;;;;5082965;28;20254;-80
2021/09/10 02:21:38;;;;;;;5.28;4.55;;;17.90;99.90;;;;;;5083492;28;20212;-81
2021/09/10 02:24:05;;;;;;;6.60;5.65;;;17.90;99.90;;;;;;5082346;28;20239;-80
2021/09/10 02:26:32;;;;;;;9.27;7.63;;;17.90;99.90;;;;;;5102293;28;20227;-80
2021/09/10 02:28:59;;;;;;;6.80;6.20;;;17.80;99.90;;;;;;5105279;28;20211;-81
2021/09/10 02:31:26;;;;;;;7.05;6.35;;;17.80;99.90;;;;;;5100692;28;20200;-79
2021/09/10 02:33:54;;;;;;;7.22;6.03;;;17.80;99.90;;;;;;5086974;28;20439;-79
2021/09/10 02:36:21;;;;;;;8.63;6.47;;;17.70;99.90;;;;;;5087564;28;20220;-77
2021/09/10 02:38:48;;;;;;;9.25;6.38;;;17.70;99.90;;;;;;5085839;28;20195;-79
2021/09/10 02:41:15;;;;;;;7.20;6.22;;;17.70;99.90;;;;;;5087053;28;20196;-80
2021/09/10 02:43:42;;;;;;;6.15;5.55;;;17.70;99.90;;;;;;5106925;28;20218;-80
2021/09/10 02:46:09;;;;;;;7.07;6.38;;;17.70;99.90;;;;;;5106821;28;20203;-80
2021/09/10 02:48:36;;;;;;;5.95;5.35;;;17.70;99.90;;;;;;5099825;28;20219;-78
2021/09/10 02:51:04;;;;;;;8.30;6.35;;;17.70;99.90;;;;;;5086612;28;20288;-80
2021/09/10 02:53:31;;;;;;;6.30;5.70;;;17.70;99.90;;;;;;5100446;28;20223;-80
2021/09/10 02:55:59;;;;;;;6.10;5.50;;;17.70;99.90;;;;;;5094264;28;20408;-80
2021/09/10 02:58:25;;;;;;;6.05;5.47;;;17.70;99.90;;;;;;5087153;28;20197;-79
2021/09/10 03:00:52;;;;;;;6.80;5.80;;;17.70;99.90;;;;;;5085372;28;21024;-80
2021/09/10 03:03:19;;;;;;;7.80;6.45;;;17.70;99.90;;;;;;5086726;28;20216;-80
2021/09/10 03:05:46;;;;;;;6.45;5.40;;;17.70;99.90;;;;;;5085669;28;20846;-79
2021/09/10 03:08:14;;;;;;;6.88;5.45;;;17.70;99.90;;;;;;5087223;28;20212;-80
2021/09/10 03:10:41;;;;;;;6.20;5.35;;;17.60;99.90;;;;;;5086199;28;20201;-81
2021/09/10 03:13:07;;;;;;;6.20;5.57;;;17.60;99.90;;;;;;5085579;28;21073;-80
2021/09/10 03:15:34;;;;;;;5.40;4.90;;;17.60;99.90;;;;;;5086082;28;20228;-81
2021/09/10 03:18:01;;;;;;;6.28;5.35;;;17.60;99.90;;;;;;5086172;28;20216;-81
2021/09/10 03:20:28;;;;;;;7.75;6.95;;;17.60;99.90;;;;;;5085917;28;20209;-79
2021/09/10 03:22:54;;;;;;;6.93;6.25;;;17.60;99.90;;;;;;5085935;28;20205;-79
2021/09/10 03:25:23;;;;;;;7.97;7.05;;;17.50;99.90;;;;;;5086432;28;20201;-80
2021/09/10 03:27:50;;;;;;;9.07;6.38;;;17.60;99.90;;;;;;5085767;28;20212;-80
2021/09/10 03:30:19;;;;;;;7.90;6.93;;;17.50;99.90;;;;;;5086758;28;20196;-79
2021/09/10 03:32:46;;;;;;;7.07;6.25;;;17.50;99.90;;;;;;5085532;28;20232;-79
2021/09/10 03:35:12;;;;;;;9.45;7.65;;;17.50;99.90;;;;;;5085182;28;20528;-79
2021/09/10 03:37:39;;;;;;;8.30;7.43;;;17.50;99.90;;;;;;5085735;28;20197;-79
2021/09/10 03:40:08;;;;;;;10.93;8.63;;;17.40;99.90;;;;;;5084772;28;20205;-80
2021/09/10 03:42:36;;;;;;;9.30;7.68;;;17.40;99.90;;;;;;5084285;28;20211;-80
2021/09/10 03:45:03;;;;;;;7.57;6.78;;;17.40;99.90;;;;;;5084632;28;20243;-80
2021/09/10 03:47:30;;;;;;;10.55;8.27;;;17.40;99.90;;;;;;5085981;28;20208;-80
2021/09/10 03:49:57;;;;;;;7.93;7.10;;;17.40;99.90;;;;;;5084198;28;20204;-79
2021/09/10 03:52:24;;;;;;;12.15;10.73;;;17.40;99.90;;;;;;5090319;28;20230;-80
2021/09/10 03:54:50;;;;;;;12.13;9.93;;;17.40;99.90;;;;;;5086764;28;20240;-79
2021/09/10 03:57:17;;;;;;;10.10;9.10;;;17.40;99.90;;;;;;5085313;28;20197;-79
2021/09/10 03:59:45;;;;;;;10.55;9.48;;;17.50;99.90;;;;;;5085356;28;20200;-80
2021/09/10 04:02:12;;;;;;;14.85;13.10;;;17.50;99.90;;;;;;5084485;28;20627;-80
2021/09/10 04:04:39;;;;;;;14.35;12.27;;;17.50;99.90;;;;;;5085106;28;20193;-78
2021/09/10 04:07:06;;;;;;;13.30;11.90;;;17.50;99.90;;;;;;5085159;28;20207;-79
2021/09/10 04:09:32;;;;;;;16.08;13.57;;;17.50;99.90;;;;;;5084799;28;20212;-79
2021/09/10 04:11:59;;;;;;;14.18;12.43;;;17.60;99.90;;;;;;5084640;28;20201;-79
2021/09/10 04:14:26;;;;;;;17.30;13.48;;;17.60;99.90;;;;;;5085123;28;20231;-79
2021/09/10 04:16:54;;;;;;;16.52;14.43;;;17.60;99.90;;;;;;5084026;28;20212;-79
2021/09/10 04:19:21;;;;;;;18.35;15.13;;;17.70;99.90;;;;;;5085562;28;20212;-80
2021/09/10 04:21:47;;;;;;;25.00;21.00;;;17.70;99.90;;;;;;5085028;28;20219;-80
2021/09/10 04:24:17;;;;;;;23.27;19.33;;;17.70;99.90;;;;;;5084771;28;20534;-79
2021/09/10 04:26:44;;;;;;;23.88;20.27;;;17.70;99.90;;;;;;5084089;28;20204;-80
2021/09/10 04:29:11;;;;;;;25.98;23.17;;;17.70;99.90;;;;;;5084695;28;20204;-80
2021/09/10 04:31:38;;;;;;;31.58;26.98;;;17.80;99.90;;;;;;5084414;28;20204;-79
2021/09/10 04:34:06;;;;;;;30.88;25.55;;;17.80;99.90;;;;;;5084935;28;20227;-79
2021/09/10 04:36:33;;;;;;;29.45;25.42;;;17.80;99.90;;;;;;5084598;28;20224;-80
2021/09/10 04:39:00;;;;;;;33.75;27.15;;;17.90;99.90;;;;;;5084050;28;20197;-79
2021/09/10 04:41:27;;;;;;;33.28;26.73;;;17.90;99.90;;;;;;5084567;28;20208;-79
2021/09/10 04:43:54;;;;;;;35.28;28.48;;;17.90;99.90;;;;;;5093039;28;20208;-80
2021/09/10 04:46:20;;;;;;;32.45;27.35;;;17.80;99.90;;;;;;5104698;28;20196;-80
2021/09/10 04:48:47;;;;;;;33.88;29.75;;;17.80;99.90;;;;;;5104798;28;20199;-79
2021/09/10 04:51:15;;;;;;;32.63;26.50;;;17.90;99.90;;;;;;5090368;28;20215;-79
2021/09/10 04:53:42;;;;;;;38.22;29.67;;;17.80;99.90;;;;;;5099641;28;20227;-80
2021/09/10 04:56:09;;;;;;;38.13;29.73;;;17.80;99.90;;;;;;5104278;28;20236;-78
2021/09/10 04:58:36;;;;;;;35.15;29.63;;;17.90;99.90;;;;;;5100945;28;20204;-77
2021/09/10 05:01:03;;;;;;;39.33;31.85;;;17.90;99.90;;;;;;5084819;28;20204;-78
2021/09/10 05:03:31;;;;;;;41.30;34.25;;;17.90;99.90;;;;;;5084427;28;20209;-78
2021/09/10 05:05:58;;;;;;;36.85;30.40;;;17.90;99.90;;;;;;5083844;28;20588;-78
2021/09/10 05:08:26;;;;;;;39.17;32.67;;;17.90;99.90;;;;;;5084744;28;20600;-78
2021/09/10 05:10:53;;;;;;;40.40;33.80;;;17.90;99.90;;;;;;5084401;28;20208;-79
2021/09/10 05:13:20;;;;;;;39.60;32.42;;;17.90;99.90;;;;;;5083037;28;20224;-80
2021/09/10 05:15:46;;;;;;;38.30;32.15;;;18.00;99.90;;;;;;5083248;28;20220;-81
2021/09/10 05:18:13;;;;;;;36.35;29.80;;;18.00;99.90;;;;;;5084511;28;20211;-79
2021/09/10 05:20:41;;;;;;;40.75;32.75;;;18.00;99.90;;;;;;5082702;28;20216;-80
2021/09/10 05:23:07;;;;;;;38.53;32.17;;;18.00;99.90;;;;;;5087615;28;20679;-80
2021/09/10 05:25:36;;;;;;;40.50;31.88;;;18.00;99.90;;;;;;5104306;28;20203;-78
2021/09/10 05:28:02;;;;;;;40.42;32.10;;;18.10;99.90;;;;;;5101497;28;20200;-80
2021/09/10 05:30:29;;;;;;;31.10;26.45;;;18.20;99.90;;;;;;5083400;28;20230;-79
2021/09/10 05:32:56;;;;;;;43.83;32.88;;;18.10;99.90;;;;;;5083153;28;20199;-80
2021/09/10 05:35:23;;;;;;;41.22;32.85;;;18.20;99.90;;;;;;5083136;28;20220;-79
2021/09/10 05:37:50;;;;;;;45.92;36.28;;;18.20;99.90;;;;;;5083173;28;20216;-79
2021/09/10 05:40:17;;;;;;;39.08;32.28;;;18.30;99.90;;;;;;5083769;28;20205;-80
2021/09/10 05:42:47;;;;;;;49.80;37.70;;;18.30;99.90;;;;;;5082125;28;20727;-77
2021/09/10 05:45:13;;;;;;;46.70;36.78;;;18.30;99.90;;;;;;5083153;28;20287;-78
2021/09/10 05:47:40;;;;;;;41.60;33.50;;;18.40;99.90;;;;;;5082706;28;20201;-79
2021/09/10 05:50:08;;;;;;;41.58;33.30;;;18.40;99.90;;;;;;5083521;28;20585;-79
2021/09/10 05:52:35;;;;;;;48.95;36.92;;;18.50;99.90;;;;;;5086563;28;20370;-79
2021/09/10 05:55:01;;;;;;;46.65;35.53;;;18.50;99.90;;;;;;5082768;28;20258;-79
2021/09/10 05:57:28;;;;;;;44.85;34.42;;;18.60;99.90;;;;;;5084464;28;20203;-79
2021/09/10 05:59:56;;;;;;;45.53;35.70;;;18.60;99.90;;;;;;5083445;28;20207;-79
2021/09/10 06:02:23;;;;;;;44.85;34.67;;;18.70;99.90;;;;;;5083744;28;20759;-78
2021/09/10 06:04:50;;;;;;;39.80;31.13;;;18.70;99.90;;;;;;5083775;28;20215;-80
2021/09/10 06:07:17;;;;;;;52.47;38.80;;;18.70;99.90;;;;;;5084241;28;20689;-80
2021/09/10 06:09:44;;;;;;;51.75;37.38;;;18.80;99.90;;;;;;5084925;28;20208;-78
2021/09/10 06:12:10;;;;;;;56.63;39.65;;;18.80;99.90;;;;;;5085461;28;20215;-79
2021/09/10 06:14:37;;;;;;;58.67;40.38;;;18.90;99.90;;;;;;5085817;28;20208;-79
2021/09/10 06:17:06;;;;;;;54.67;38.30;;;18.90;99.90;;;;;;5090607;28;20238;-79
2021/09/10 06:19:33;;;;;;;48.45;35.03;;;19.00;99.90;;;;;;5097904;28;20219;-80
2021/09/10 06:22:00;;;;;;;68.30;44.40;;;19.00;99.90;;;;;;5112150;28;20231;-81
2021/09/10 06:24:26;;;;;;;72.57;45.38;;;19.10;99.90;;;;;;5106543;28;20238;-80
2021/09/10 06:26:53;;;;;;;71.13;47.03;;;19.10;99.90;;;;;;5116014;28;20191;-80
2021/09/10 06:29:20;;;;;;;65.88;42.38;;;19.20;99.90;;;;;;5130328;28;20192;-80
2021/09/10 06:31:49;;;;;;;75.13;48.22;;;19.20;99.90;;;;;;5125567;28;20206;-79
2021/09/10 06:34:20;;;;;;;72.57;45.90;;;19.20;99.90;;;;;;5114718;28;20208;-79
2021/09/10 06:36:47;;;;;;;79.70;49.80;;;19.30;99.90;;;;;;5109016;28;20639;-79
2021/09/10 06:39:14;;;;;;;71.65;45.28;;;19.30;99.90;;;;;;5110592;28;20292;-80
2021/09/10 06:41:40;;;;;;;71.65;47.58;;;19.40;99.90;;;;;;5089060;28;20212;-78
2021/09/10 06:44:07;;;;;;;73.05;47.05;;;19.40;99.90;;;;;;5082053;28;20212;-79
2021/09/10 06:46:34;;;;;;;74.38;50.00;;;19.50;99.90;;;;;;5083285;28;20207;-78
2021/09/10 06:49:01;;;;;;;64.68;44.20;;;19.50;99.90;;;;;;5051083;28;20529;-79
2021/09/10 06:51:29;;;;;;;69.55;45.40;;;19.60;99.90;;;;;;5081517;28;20220;-78
2021/09/10 06:53:56;;;;;;;70.30;46.03;;;19.70;99.90;;;;;;5099542;28;20203;-79
2021/09/10 06:56:23;;;;;;;54.65;37.30;;;19.70;99.90;;;;;;5102736;28;20243;-79
2021/09/10 06:58:51;;;;;;;63.70;42.25;;;19.80;99.90;;;;;;5099827;28;20258;-79
2021/09/10 07:01:18;;;;;;;60.85;41.08;;;19.80;99.90;;;;;;5082651;28;20656;-79
2021/09/10 07:03:45;;;;;;;76.68;48.15;;;19.80;99.90;;;;;;5082497;28;20201;-80
2021/09/10 07:06:12;;;;;;;78.13;46.17;;;19.90;99.90;;;;;;5094762;28;20485;-79
2021/09/10 07:08:40;;;;;;;64.40;42.33;;;19.90;99.90;;;;;;5082324;28;20615;-79
2021/09/10 07:11:07;;;;;;;68.47;44.17;;;19.90;99.90;;;;;;5082482;28;20204;-80
2021/09/10 07:13:34;;;;;;;71.05;46.17;;;20.00;99.90;;;;;;5079264;28;20530;-77
2021/09/10 07:16:00;;;;;;;82.07;50.38;;;20.00;99.90;;;;;;5086093;28;20232;-79
2021/09/10 07:18:27;;;;;;;67.50;43.72;;;20.00;99.90;;;;;;5086439;28;20193;-79
2021/09/10 07:20:54;;;;;;;64.90;43.33;;;20.10;99.90;;;;;;5085336;28;20230;-78
2021/09/10 07:23:21;;;;;;;64.78;44.03;;;20.10;99.90;;;;;;5086358;28;20208;-78
2021/09/10 07:25:49;;;;;;;70.80;46.80;;;20.10;99.90;;;;;;5086339;28;20197;-80
2021/09/10 07:28:16;;;;;;;76.88;47.95;;;20.20;99.90;;;;;;5085786;28;20776;-78
2021/09/10 07:30:43;;;;;;;78.43;49.55;;;20.20;99.90;;;;;;5086382;28;20196;-79
2021/09/10 07:33:09;;;;;;;70.93;45.88;;;20.20;99.90;;;;;;5085833;28;20204;-79
2021/09/10 07:35:36;;;;;;;70.63;47.80;;;20.30;99.90;;;;;;5085683;28;20232;-77
2021/09/10 07:38:03;;;;;;;67.72;44.50;;;20.40;99.90;;;;;;5085782;28;20208;-80
2021/09/10 07:40:31;;;;;;;66.13;45.47;;;20.50;99.90;;;;;;5085746;28;20208;-80
2021/09/10 07:43:00;;;;;;;71.40;46.65;;;20.50;99.90;;;;;;5084930;28;20206;-80
2021/09/10 07:45:26;;;;;;;65.00;42.47;;;20.60;99.90;;;;;;5085475;28;20201;-80
2021/09/10 07:47:53;;;;;;;70.45;47.65;;;20.60;99.90;;;;;;5084589;28;20207;-81
2021/09/10 07:50:20;;;;;;;76.55;48.50;;;20.80;99.90;;;;;;5085995;28;20208;-80
2021/09/10 07:52:47;;;;;;;70.63;46.50;;;20.90;99.90;;;;;;5089090;28;20227;-79
2021/09/10 07:55:14;;;;;;;63.03;44.25;;;20.90;99.90;;;;;;5085089;28;20233;-80
2021/09/10 07:57:40;;;;;;;73.00;47.45;;;21.00;99.90;;;;;;5085981;28;20207;-81
2021/09/10 08:00:10;;;;;;;58.78;39.70;;;21.00;99.90;;;;;;5086234;28;20215;-81
2021/09/10 08:02:37;;;;;;;66.95;45.40;;;21.00;99.90;;;;;;5084832;28;20209;-81
2021/09/10 08:05:05;;;;;;;62.50;43.42;;;21.10;99.90;;;;;;5085416;28;20917;-81
2021/09/10 08:07:32;;;;;;;60.95;42.40;;;21.10;99.90;;;;;;5085412;28;20201;-79
2021/09/10 08:09:59;;;;;;;61.95;41.40;;;21.20;99.90;;;;;;5084997;28;20208;-80
2021/09/10 08:12:26;;;;;;;58.05;42.67;;;21.20;99.90;;;;;;5085657;28;20235;-79
2021/09/10 08:14:53;;;;;;;60.92;44.30;;;21.20;99.90;;;;;;5085487;28;20200;-80
2021/09/10 08:17:21;;;;;;;65.45;43.30;;;21.30;99.90;;;;;;5084822;28;20227;-80
2021/09/10 08:19:49;;;;;;;62.92;43.90;;;21.40;99.90;;;;;;5084899;28;20623;-80
2021/09/10 08:22:16;;;;;;;55.50;41.15;;;21.40;99.90;;;;;;5085152;28;20197;-82
2021/09/10 08:24:47;;;;;;;50.95;40.53;;;21.40;99.90;;;;;;5085470;28;20678;-81
2021/09/10 08:27:14;;;;;;;45.78;36.47;;;21.30;99.90;;;;;;5084686;28;20197;-81
2021/09/10 08:29:41;;;;;;;50.00;36.85;;;21.40;99.90;;;;;;5084879;28;20795;-82
2021/09/10 08:32:08;;;;;;;45.97;36.92;;;21.40;99.90;;;;;;5105618;28;20211;-80
2021/09/10 08:34:36;;;;;;;47.47;35.28;;;21.40;99.90;;;;;;5105402;28;20199;-78
2021/09/10 08:37:03;;;;;;;39.63;32.83;;;21.50;99.90;;;;;;5085309;28;20229;-78
2021/09/10 08:39:30;;;;;;;40.00;30.90;;;21.60;99.90;;;;;;5085127;28;20204;-78
2021/09/10 08:41:58;;;;;;;36.13;30.40;;;21.70;99.90;;;;;;5084809;28;20200;-79
2021/09/10 08:44:27;;;;;;;33.83;28.30;;;21.90;99.90;;;;;;5083760;28;20204;-79
2021/09/10 08:46:54;;;;;;;28.42;24.85;;;22.00;99.90;;;;;;5084507;28;20208;-79
2021/09/10 08:49:21;;;;;;;27.88;23.02;;;22.20;99.90;;;;;;5085140;28;20208;-78
2021/09/10 08:51:50;;;;;;;28.23;25.20;;;22.40;99.90;;;;;;5083356;28;20493;-81
2021/09/10 08:54:18;;;;;;;26.10;23.33;;;22.60;99.90;;;;;;5085169;28;20608;-80
2021/09/10 08:56:45;;;;;;;24.58;20.10;;;22.80;99.90;;;;;;5083505;28;20240;-80
2021/09/10 08:59:13;;;;;;;23.80;19.70;;;23.00;99.90;;;;;;5084553;28;20212;-81
2021/09/10 09:01:50;;;;;;;21.17;17.60;;;23.10;99.90;;;;;;5084815;28;20204;-80
2021/09/10 09:04:17;;;;;;;20.73;18.58;;;23.30;99.90;;;;;;5084742;28;20521;-80
2021/09/10 09:06:49;;;;;;;21.73;19.20;;;23.30;99.90;;;;;;5083387;28;20686;-80
2021/09/10 09:09:34;;;;;;;21.42;18.52;;;23.30;99.90;;;;;;5084788;28;20193;-79
2021/09/10 09:12:15;;;;;;;19.10;16.65;;;23.30;99.90;;;;;;5084274;28;20542;-80
2021/09/10 09:14:46;;;;;;;17.23;15.18;;;23.50;99.90;;;;;;5084550;28;20196;-80
2021/09/10 09:17:25;;;;;;;20.00;15.25;;;23.90;99.90;;;;;;5084420;28;20224;-80
2021/09/10 09:20:11;;;;;;;17.17;14.95;;;24.20;99.90;;;;;;5083185;28;20197;-80
2021/09/10 09:22:56;;;;;;;18.00;16.10;;;24.50;99.90;;;;;;5083588;28;20200;-81
2021/09/10 09:25:29;;;;;;;18.08;14.73;;;24.60;99.90;;;;;;5084231;28;20231;-80
2021/09/10 09:27:57;;;;;;;16.02;14.32;;;24.60;99.90;;;;;;5083848;28;20209;-80
2021/09/10 09:30:42;;;;;;;14.77;13.35;;;24.60;99.90;;;;;;5083114;28;20192;-80
2021/09/10 09:33:10;;;;;;;16.08;13.65;;;24.60;99.90;;;;;;5082443;28;20812;-80
2021/09/10 09:35:37;;;;;;;13.60;12.20;;;24.60;99.90;;;;;;5083124;28;20216;-81
2021/09/10 09:38:13;;;;;;;15.63;13.60;;;24.60;99.90;;;;;;5082649;28;20235;-80
2021/09/10 09:40:41;;;;;;;13.38;11.98;;;24.50;99.90;;;;;;5081986;28;20212;-82
2021/09/10 09:43:14;;;;;;;15.35;12.70;;;24.30;99.90;;;;;;5083543;28;20211;-79
2021/09/10 09:45:41;;;;;;;15.20;11.70;;;24.10;99.90;;;;;;5083299;28;20232;-80
2021/09/10 09:48:10;;;;;;;13.35;12.05;;;24.00;99.90;;;;;;5082673;28;20208;-77
2021/09/10 09:50:38;;;;;;;15.52;13.30;;;23.80;99.90;;;;;;5083284;28;20195;-79
2021/09/10 09:53:05;;;;;;;14.30;12.80;;;23.70;99.90;;;;;;5093516;28;20514;-81
2021/09/10 09:55:33;;;;;;;12.45;11.18;;;23.70;99.90;;;;;;5087420;28;20240;-80
2021/09/10 09:58:05;;;;;;;17.60;14.32;;;23.70;99.90;;;;;;5083016;28;20319;-81
2021/09/10 10:00:32;;;;;;;16.20;14.52;;;23.80;99.90;;;;;;5082644;28;20254;-81
2021/09/10 10:03:00;;;;;;;14.93;13.35;;;23.80;99.90;;;;;;5082358;28;20204;-80
2021/09/10 10:05:28;;;;;;;17.77;14.48;;;23.70;99.90;;;;;;5083251;28;20200;-81
2021/09/10 10:08:00;;;;;;;14.77;13.27;;;23.60;99.90;;;;;;5081645;28;20211;-80
2021/09/10 10:10:30;;;;;;;17.65;15.73;;;23.50;99.90;;;;;;5082515;28;20197;-80
2021/09/10 10:12:57;;;;;;;17.50;15.60;;;23.40;99.90;;;;;;5082377;28;20958;-81
2021/09/10 10:15:28;;;;;;;19.20;17.02;;;23.40;99.90;;;;;;5082687;28;20216;-81
2021/09/10 10:17:56;;;;;;;19.42;17.42;;;23.30;99.90;;;;;;5082211;28;20220;-81
2021/09/10 10:20:48;;;;;;;21.75;19.42;;;23.40;99.90;;;;;;5083297;28;20220;-81
2021/09/10 10:23:56;;;;;;;24.23;21.30;;;23.50;99.90;;;;;;5082898;28;20456;-81
2021/09/10 10:26:42;;;;;;;23.33;20.52;;;23.60;99.90;;;;;;5083292;28;20212;-82
2021/09/10 10:29:16;;;;;;;22.02;19.77;;;23.70;99.90;;;;;;5082859;28;20208;-81
2021/09/10 10:32:02;;;;;;;22.85;20.45;;;23.70;99.90;;;;;;5083699;28;20237;-80
2021/09/10 10:34:30;;;;;;;22.88;19.33;;;23.80;99.90;;;;;;5083299;28;20208;-81
2021/09/10 10:36:56;;;;;;;22.48;20.15;;;23.70;99.90;;;;;;5082794;28;20228;-79
2021/09/10 10:39:29;;;;;;;25.05;22.17;;;23.80;99.90;;;;;;5083253;28;20211;-79
2021/09/10 10:41:58;;;;;;;23.88;21.30;;;23.70;99.90;;;;;;5082870;28;20341;-81
2021/09/10 10:44:50;;;;;;;25.13;21.77;;;23.70;99.90;;;;;;5083109;28;20301;-81
2021/09/10 10:47:34;;;;;;;22.95;19.85;;;23.80;99.90;;;;;;5083557;28;20310;-81
2021/09/10 10:50:02;;;;;;;21.38;19.15;;;23.90;99.90;;;;;;5084188;28;20200;-80
2021/09/10 10:52:31;;;;;;;25.95;21.90;;;24.00;99.90;;;;;;5092518;28;20230;-80
2021/09/10 10:55:32;;;;;;;24.33;21.80;;;24.10;99.90;;;;;;5108092;28;20200;-84
2021/09/10 10:58:20;;;;;;;24.85;22.17;;;24.10;99.90;;;;;;5106357;28;20252;-80
2021/09/10 11:00:48;;;;;;;26.35;21.23;;;24.30;99.90;;;;;;5099608;28;20200;-79
2021/09/10 11:03:36;;;;;;;23.45;19.63;;;24.50;99.90;;;;;;5086742;28;20201;-81
2021/09/10 11:06:26;;;;;;;27.35;22.15;;;24.60;99.90;;;;;;5085727;28;20212;-79
2021/09/10 11:08:53;;;;;;;26.13;21.83;;;24.60;99.90;;;;;;5085909;28;20205;-80
2021/09/10 11:11:20;;;;;;;24.08;19.42;;;24.70;99.90;;;;;;5086745;28;20212;-80
2021/09/10 11:13:47;;;;;;;18.73;16.35;;;24.70;99.90;;;;;;5087004;28;20200;-79
2021/09/10 11:16:27;;;;;;;20.48;16.00;;;24.70;99.90;;;;;;5086954;28;20212;-79
2021/09/10 11:18:56;;;;;;;16.92;15.23;;;24.70;99.90;;;;;;5085995;28;20238;-79
2021/09/10 11:21:31;;;;;;;17.02;13.40;;;24.80;99.90;;;;;;5087380;28;20208;-80
2021/09/10 11:24:08;;;;;;;17.92;14.98;;;24.90;99.90;;;;;;5087084;28;20204;-78
2021/09/10 11:26:36;;;;;;;15.02;13.43;;;25.10;99.90;;;;;;5086234;28;20211;-80
2021/09/10 11:29:13;;;;;;;15.75;12.95;;;25.30;99.90;;;;;;5087001;28;20208;-80
2021/09/10 11:31:43;;;;;;;16.45;14.75;;;25.30;99.90;;;;;;5086631;28;20295;-78
2021/09/10 11:34:32;;;;;;;16.65;14.93;;;25.20;99.90;;;;;;5086085;28;20289;-79
2021/09/10 11:37:02;;;;;;;18.90;15.82;;;25.10;99.90;;;;;;5087236;28;20640;-79
2021/09/10 11:39:29;;;;;;;18.25;16.05;;;24.90;99.90;;;;;;5086763;28;20196;-79
2021/09/10 11:41:56;;;;;;;18.25;15.27;;;24.80;99.90;;;;;;5089674;28;20215;-79
2021/09/10 11:44:23;;;;;;;19.63;15.80;;;24.80;99.90;;;;;;5108769;28;20310;-80
2021/09/10 11:46:50;;;;;;;14.32;12.85;;;24.80;99.90;;;;;;5097236;28;20569;-80
2021/09/10 11:49:18;;;;;;;17.13;14.68;;;24.80;99.90;;;;;;5094494;28;20207;-81
2021/09/10 11:51:48;;;;;;;15.75;14.10;;;24.80;99.90;;;;;;5093271;28;20263;-80
2021/09/10 11:54:17;;;;;;;16.65;13.80;;;24.60;99.90;;;;;;5093196;28;20236;-81
2021/09/10 11:56:46;;;;;;;14.68;11.35;;;24.50;99.90;;;;;;5092574;28;20668;-81
2021/09/10 11:59:18;;;;;;;18.00;13.98;;;24.50;99.90;;;;;;5099779;28;20222;-80
2021/09/10 12:01:45;;;;;;;13.20;11.88;;;24.50;99.90;;;;;;5104407;28;20204;-80
2021/09/10 12:04:14;;;;;;;18.85;14.20;;;24.40;99.90;;;;;;5089766;28;20204;-80
2021/09/10 12:06:49;;;;;;;13.48;11.75;;;24.40;99.90;;;;;;5086364;28;20208;-80
2021/09/10 12:09:18;;;;;;;11.45;9.90;;;24.50;99.90;;;;;;5087096;28;20196;-79
2021/09/10 12:12:01;;;;;;;11.98;8.73;;;24.50;99.90;;;;;;5089345;28;20219;-84
2021/09/10 12:14:33;;;;;;;104.22;17.52;;;24.50;99.90;;;;;;5108857;27;20200;-81
2021/09/10 12:17:18;;;;;;;11.57;8.68;;;24.50;99.90;;;;;;5087634;28;20711;-85
2021/09/10 12:19:53;;;;;;;15.13;8.52;;;24.50;99.90;;;;;;5097008;28;20677;-85
2021/09/10 12:22:34;;;;;;;14.40;8.85;;;24.40;99.90;;;;;;5110032;28;20204;-81
2021/09/10 12:25:40;;;;;;;11.20;10.05;;;24.40;99.90;;;;;;5098864;28;20498;-83
2021/09/10 12:28:30;;;;;;;11.75;10.27;;;24.30;99.90;;;;;;5086217;28;20203;-82
2021/09/10 12:31:04;;;;;;;13.48;11.95;;;24.30;99.90;;;;;;5107127;28;20191;-81
2021/09/10 12:33:31;;;;;;;14.52;12.00;;;24.20;99.90;;;;;;5106921;28;20206;-81
2021/09/10 12:36:00;;;;;;;15.35;10.93;;;24.20;99.90;;;;;;5106125;28;20204;-82
2021/09/10 12:38:33;;;;;;;12.80;11.20;;;24.20;99.90;;;;;;5100455;28;20231;-80
2021/09/10 12:41:00;;;;;;;12.52;9.85;;;24.40;99.90;;;;;;5113808;27;20211;-80
2021/09/10 12:43:28;;;;;;;15.68;13.40;;;24.30;99.90;;;;;;5096784;27;20514;-81